Time;durP1;ratioP1;P1;durP2;ratioP2;P2;SDS_P1;SDS_P2;PMS_P1;PMS_P2;Temp;Humidity;BMP_temperature;BMP_pressure;BME280_temperature;BME280_humidity;BME280_pressure;Samples;Min_cycle;Max_cycle;Signal;HPM_P1;HPM_P2
2023/05/29 00:01:24;;;;;;;8.38;4.10;;;;;;;20.22;37.71;100644.13;4095698;29;20110;-63
2023/05/29 00:03:46;;;;;;;9.70;4.07;;;;;;;20.16;37.89;100641.66;4094913;29;20454;-63
2023/05/29 00:06:08;;;;;;;7.50;3.60;;;;;;;20.12;37.94;100638.22;4094767;28;20098;-63
2023/05/29 00:08:30;;;;;;;8.30;3.38;;;;;;;20.12;38.34;100642.63;4094703;29;20053;-63
2023/05/29 00:10:51;;;;;;;6.85;3.45;;;;;;;20.07;38.85;100644.50;4095908;29;20568;-63
2023/05/29 00:13:15;;;;;;;6.00;3.17;;;;;;;20.03;39.28;100648.97;4093007;29;20528;-63
2023/05/29 00:15:36;;;;;;;6.32;3.38;;;;;;;19.98;39.46;100648.22;4095729;28;20114;-63
2023/05/29 00:17:57;;;;;;;7.00;3.58;;;;;;;19.91;39.87;100651.88;4081208;29;20070;-63
2023/05/29 00:20:19;;;;;;;6.57;3.33;;;;;;;19.83;39.69;100655.56;4092837;28;20130;-63
2023/05/29 00:22:41;;;;;;;6.75;3.60;;;;;;;19.77;40.24;100646.84;4093558;29;20053;-63
2023/05/29 00:25:03;;;;;;;8.25;3.72;;;;;;;19.74;40.63;100645.13;4095445;28;20524;-63
2023/05/29 00:27:25;;;;;;;5.95;3.33;;;;;;;19.68;40.46;100654.06;4095587;29;20481;-63
2023/05/29 00:29:48;;;;;;;5.60;3.78;;;;;;;19.65;40.78;100647.97;4093866;28;20146;-63
2023/05/29 00:32:10;;;;;;;8.75;3.67;;;;;;;19.58;41.00;100647.25;4091293;29;20057;-63
2023/05/29 00:34:32;;;;;;;6.63;3.55;;;;;;;19.53;40.73;100644.69;4090132;28;20520;-62
2023/05/29 00:36:54;;;;;;;10.20;4.32;;;;;;;19.52;41.22;100642.06;4094619;29;20062;-62
2023/05/29 00:39:16;;;;;;;11.38;4.25;;;;;;;19.47;41.64;100638.69;4095270;29;20062;-62
2023/05/29 00:41:38;;;;;;;7.43;3.80;;;;;;;19.43;42.83;100639.63;4081750;29;20063;-62
2023/05/29 00:43:59;;;;;;;10.27;4.15;;;;;;;19.43;41.57;100635.22;4092593;29;20099;-62
2023/05/29 00:46:22;;;;;;;7.57;4.28;;;;;;;19.43;41.54;100640.50;4094508;28;20066;-62
2023/05/29 00:48:44;;;;;;;6.85;3.55;;;;;;;19.42;41.69;100629.97;4093930;29;20536;-63
2023/05/29 00:51:06;;;;;;;6.90;3.30;;;;;;;19.43;41.26;100637.00;4091892;29;20103;-63
2023/05/29 00:53:28;;;;;;;7.18;3.45;;;;;;;19.45;40.70;100643.97;4094770;29;21339;-62
2023/05/29 00:55:49;;;;;;;7.30;3.75;;;;;;;19.42;41.01;100638.78;4081663;29;20055;-63
2023/05/29 00:58:12;;;;;;;7.90;3.80;;;;;;;19.41;40.84;100644.94;4093429;29;20073;-63
2023/05/29 01:00:35;;;;;;;6.75;3.35;;;;;;;19.36;40.83;100641.50;4094819;29;20050;-63
2023/05/29 01:02:59;;;;;;;6.70;3.92;;;;;;;19.43;40.83;100640.50;4081700;29;20051;-62
2023/05/29 01:05:21;;;;;;;8.07;4.22;;;;;;;19.38;40.72;100639.72;4092860;28;20123;-62
2023/05/29 01:07:43;;;;;;;7.40;4.10;;;;;;;19.41;40.84;100644.94;4095568;29;20883;-63
2023/05/29 01:10:06;;;;;;;6.70;3.70;;;;;;;19.31;41.33;100633.69;4096019;29;20135;-62
2023/05/29 01:12:39;;;;;;;7.05;3.53;;;;;;;19.30;41.61;100641.63;4092799;29;20062;-62
2023/05/29 01:15:21;;;;;;;6.15;3.50;;;;;;;19.22;41.86;100643.56;4096273;28;20094;-62
2023/05/29 01:17:55;;;;;;;5.30;2.88;;;;;;;19.19;41.74;100642.69;4094684;29;20432;-62
2023/05/29 01:20:32;;;;;;;10.52;3.65;;;;;;;19.15;41.69;100635.75;4096362;29;20130;-62
2023/05/29 01:23:28;;;;;;;7.55;3.33;;;;;;;19.08;42.13;100631.47;4094940;29;20536;-63
2023/05/29 01:26:08;;;;;;;9.05;3.67;;;;;;;19.10;42.42;100634.09;4095271;28;20111;-63
2023/05/29 01:28:38;;;;;;;7.97;4.10;;;;;;;19.08;42.71;100634.13;4096813;29;20062;-62
2023/05/29 01:31:01;;;;;;;9.57;3.97;;;;;;;19.06;42.13;100633.28;4095146;29;20094;-63
2023/05/29 01:33:23;;;;;;;7.78;3.80;;;;;;;18.94;42.45;100628.22;4096182;29;20050;-63
2023/05/29 01:35:45;;;;;;;7.28;3.67;;;;;;;18.92;42.52;100630.03;4097200;28;20050;-62
2023/05/29 01:38:06;;;;;;;5.55;3.47;;;;;;;18.93;42.87;100626.50;4092525;29;20193;-62
2023/05/29 01:40:28;;;;;;;7.93;3.95;;;;;;;18.83;42.97;100636.28;4090803;29;20111;-63
2023/05/29 01:42:50;;;;;;;6.40;3.58;;;;;;;18.77;43.06;100632.00;4081082;29;20066;-62
2023/05/29 01:45:16;;;;;;;7.38;3.13;;;;;;;18.75;43.27;100632.91;4095431;28;20094;-63
2023/05/29 01:47:41;;;;;;;5.95;3.40;;;;;;;18.73;43.18;100629.44;4096219;29;20473;-62
2023/05/29 01:50:05;;;;;;;7.45;3.70;;;;;;;18.79;43.40;100635.50;4097201;29;20098;-63
2023/05/29 01:52:26;;;;;;;8.73;4.28;;;;;;;18.71;43.40;100631.25;4096591;29;20057;-63
2023/05/29 01:54:48;;;;;;;9.80;3.75;;;;;;;18.71;43.86;100633.88;4094737;28;20057;-63
2023/05/29 01:57:09;;;;;;;7.05;4.10;;;;;;;18.69;43.89;100630.38;4094621;29;20082;-63
2023/05/29 01:59:31;;;;;;;8.63;3.75;;;;;;;18.58;43.89;100633.19;4096168;29;20045;-63
2023/05/29 02:01:54;;;;;;;8.85;4.07;;;;;;;18.48;44.20;100641.22;4085768;29;20071;-63
2023/05/29 02:04:15;;;;;;;9.50;4.40;;;;;;;18.46;44.68;100643.03;4078833;29;20074;-63
2023/05/29 02:06:38;;;;;;;7.30;3.70;;;;;;;18.39;44.60;100632.63;4095394;29;20183;-63
2023/05/29 02:09:00;;;;;;;10.20;4.90;;;;;;;18.38;44.84;100641.41;4078534;29;20050;-63
2023/05/29 02:11:21;;;;;;;10.90;4.40;;;;;;;18.31;45.06;100632.72;4095463;29;20102;-63
2023/05/29 02:13:43;;;;;;;9.05;4.32;;;;;;;18.24;45.13;100631.97;4095730;29;20458;-62
2023/05/29 02:16:05;;;;;;;7.45;3.78;;;;;;;18.19;45.45;100631.13;4094134;29;20046;-62
2023/05/29 02:18:29;;;;;;;7.53;3.75;;;;;;;18.22;45.28;100632.88;4094411;28;20050;-63
2023/05/29 02:20:50;;;;;;;9.68;4.28;;;;;;;18.18;45.34;100632.06;4095003;28;20343;-62
2023/05/29 02:23:16;;;;;;;8.23;3.90;;;;;;;18.10;45.38;100632.13;4093060;29;20066;-62
2023/05/29 02:25:37;;;;;;;9.27;3.70;;;;;;;18.09;45.25;100632.16;4095597;28;20123;-62
2023/05/29 02:27:59;;;;;;;9.23;3.97;;;;;;;18.02;45.44;100641.03;4094402;29;20061;-63
2023/05/29 02:30:21;;;;;;;10.80;3.92;;;;;;;17.98;45.49;100640.22;4081180;29;20086;-62
2023/05/29 02:32:42;;;;;;;9.60;3.95;;;;;;;17.95;45.73;100627.97;4095554;29;20058;-62
2023/05/29 02:35:07;;;;;;;6.30;4.03;;;;;;;17.85;46.08;100633.34;4095106;29;20046;-63
2023/05/29 02:37:29;;;;;;;8.20;3.95;;;;;;;17.77;46.04;100642.22;4095321;29;20109;-62
2023/05/29 02:39:51;;;;;;;7.47;3.67;;;;;;;17.79;45.99;100637.78;4083347;29;20573;-62
2023/05/29 02:42:12;;;;;;;9.30;4.13;;;;;;;17.72;46.15;100643.16;4093605;29;20154;-62
2023/05/29 02:44:35;;;;;;;7.90;4.32;;;;;;;17.69;46.44;100643.19;4095412;28;20074;-62
2023/05/29 02:46:56;;;;;;;11.95;4.18;;;;;;;17.70;46.37;100640.53;4097433;29;20127;-62
2023/05/29 02:49:18;;;;;;;8.65;4.35;;;;;;;17.65;46.50;100637.09;4093754;29;20742;-62
2023/05/29 02:51:40;;;;;;;7.57;4.45;;;;;;;17.69;46.37;100645.81;4095492;29;20437;-62
2023/05/29 02:54:02;;;;;;;8.43;4.05;;;;;;;17.61;46.60;100640.66;4081852;29;20150;-62
2023/05/29 02:56:24;;;;;;;8.00;4.05;;;;;;;17.59;46.77;100639.78;4094705;29;20073;-62
2023/05/29 02:58:45;;;;;;;8.32;3.53;;;;;;;17.52;46.92;100636.38;4097086;29;20061;-62
2023/05/29 03:01:08;;;;;;;8.27;4.25;;;;;;;17.51;46.59;100632.00;4093869;29;20065;-63
2023/05/29 03:03:29;;;;;;;9.05;4.60;;;;;;;17.47;47.12;100632.06;4094325;29;20453;-62
2023/05/29 03:05:52;;;;;;;10.05;4.50;;;;;;;17.43;46.87;100639.09;4095622;28;20091;-62
2023/05/29 03:08:15;;;;;;;6.75;3.85;;;;;;;17.40;46.98;100629.47;4092507;29;20073;-62
2023/05/29 03:10:37;;;;;;;8.60;3.95;;;;;;;17.39;47.21;100630.41;4095999;29;20065;-63
2023/05/29 03:12:58;;;;;;;7.63;3.80;;;;;;;17.48;46.77;100631.16;4081836;29;20047;-63
2023/05/29 03:15:20;;;;;;;6.88;4.25;;;;;;;17.43;46.60;100629.47;4093962;29;20485;-62
2023/05/29 03:17:42;;;;;;;8.70;3.78;;;;;;;17.31;46.88;100637.47;4095878;29;20090;-62
2023/05/29 03:20:10;;;;;;;11.25;4.75;;;;;;;17.33;46.74;100640.09;4080199;29;20054;-62
2023/05/29 03:22:31;;;;;;;10.00;4.10;;;;;;;17.31;46.86;100640.09;4093214;29;20082;-62
2023/05/29 03:24:54;;;;;;;9.25;4.13;;;;;;;17.28;46.91;100629.63;4095060;28;20103;-62
2023/05/29 03:27:16;;;;;;;10.98;4.85;;;;;;;17.27;46.84;100630.50;4085258;29;20433;-62
2023/05/29 03:29:39;;;;;;;6.80;4.20;;;;;;;17.24;46.83;100620.94;4096054;28;20121;-62
2023/05/29 03:32:02;;;;;;;10.75;4.32;;;;;;;17.25;46.69;100645.44;4080100;29;20510;-62
2023/05/29 03:34:27;;;;;;;7.60;4.68;;;;;;;17.20;46.99;100649.84;4079753;29;20128;-62
2023/05/29 03:36:51;;;;;;;11.18;4.13;;;;;;;17.21;47.01;100643.72;4093152;29;20135;-63
2023/05/29 03:39:13;;;;;;;11.05;4.13;;;;;;;17.22;46.82;100646.34;4094202;29;20097;-62
2023/05/29 03:41:35;;;;;;;10.93;4.38;;;;;;;17.20;47.00;100645.50;4082447;29;20057;-62
2023/05/29 03:43:57;;;;;;;12.68;4.47;;;;;;;17.19;47.05;100645.50;4092462;29;20054;-62
2023/05/29 03:46:21;;;;;;;7.65;4.03;;;;;;;17.19;46.73;100650.75;4081824;29;20050;-62
2023/05/29 03:48:42;;;;;;;9.77;3.70;;;;;;;17.08;47.16;100651.75;4095232;29;20046;-62
2023/05/29 03:51:05;;;;;;;8.30;4.45;;;;;;;17.17;46.91;100649.88;4093433;29;20506;-62
2023/05/29 03:53:29;;;;;;;;;;;;;;;17.14;46.72;100650.78;4095496;29;20090;-62
2023/05/29 03:55:51;;;;;;;6.45;3.55;;;;;;;17.09;46.77;100647.34;4092958;29;20364;-62
2023/05/29 03:58:15;;;;;;;7.78;3.67;;;;;;;17.15;46.71;100660.41;4094407;29;20061;-62
2023/05/29 04:00:37;;;;;;;6.90;3.97;;;;;;;17.13;46.83;100654.31;4094122;29;20102;-62
2023/05/29 04:02:58;;;;;;;7.57;3.70;;;;;;;17.15;46.69;100665.66;4092624;29;20054;-62
2023/05/29 04:05:20;;;;;;;12.38;4.90;;;;;;;17.10;46.74;100665.72;4095206;29;20159;-63
2023/05/29 04:07:42;;;;;;;8.82;4.05;;;;;;;17.13;46.38;100669.19;4092547;29;20051;-62
2023/05/29 04:10:05;;;;;;;10.18;3.65;;;;;;;17.13;46.53;100671.81;4094608;29;20103;-63
2023/05/29 04:12:28;;;;;;;6.07;3.22;;;;;;;17.10;46.57;100676.22;4094868;29;20603;-62
2023/05/29 04:14:51;;;;;;;10.05;4.00;;;;;;;17.17;46.68;100681.41;4090730;28;20053;-62
2023/05/29 04:17:13;;;;;;;7.22;4.05;;;;;;;17.21;46.53;100685.75;4094803;29;20137;-62
2023/05/29 04:19:36;;;;;;;8.82;4.25;;;;;;;17.14;46.72;100690.19;4081650;29;20058;-62
2023/05/29 04:21:58;;;;;;;8.20;3.67;;;;;;;17.19;46.65;100690.16;4094343;29;20098;-63
2023/05/29 04:24:20;;;;;;;12.75;4.05;;;;;;;17.17;46.62;100697.19;4081456;29;20624;-63
2023/05/29 04:26:41;;;;;;;5.45;3.50;;;;;;;17.14;46.93;100691.94;4082150;29;20066;-63
2023/05/29 04:29:03;;;;;;;7.78;4.05;;;;;;;17.20;46.63;100702.41;4093162;29;20054;-62
2023/05/29 04:31:27;;;;;;;9.50;4.22;;;;;;;17.19;46.61;100712.03;4081688;29;20055;-63
2023/05/29 04:33:53;;;;;;;8.55;4.18;;;;;;;17.24;46.63;100709.38;4081135;29;20516;-63
2023/05/29 04:36:16;;;;;;;8.60;3.75;;;;;;;17.19;47.02;100708.56;4093921;29;20143;-63
2023/05/29 04:38:39;;;;;;;11.10;3.50;;;;;;;17.24;46.67;100718.16;4095325;29;20095;-62
2023/05/29 04:41:01;;;;;;;8.52;4.07;;;;;;;17.26;46.55;100712.88;4079674;29;20103;-63
2023/05/29 04:43:26;;;;;;;8.10;3.67;;;;;;;17.19;47.02;100708.56;4081211;29;20055;-62
2023/05/29 04:45:55;;;;;;;8.90;4.13;;;;;;;17.31;46.80;100705.81;4097635;28;20152;-63
2023/05/29 04:48:17;;;;;;;11.93;4.13;;;;;;;17.26;47.15;100720.75;4090912;29;20087;-62
2023/05/29 04:50:39;;;;;;;8.65;4.07;;;;;;;17.27;46.76;100725.09;4084383;29;20062;-63
2023/05/29 04:53:01;;;;;;;6.35;3.75;;;;;;;17.31;46.78;100731.22;4092639;29;20083;-62
2023/05/29 04:55:22;;;;;;;8.15;3.95;;;;;;;17.37;46.34;100734.66;4096904;29;20188;-62
2023/05/29 04:57:44;;;;;;;6.05;3.75;;;;;;;17.44;46.57;100738.09;4082133;29;20466;-62
2023/05/29 05:00:08;;;;;;;9.48;4.63;;;;;;;17.44;46.96;100738.97;4097970;29;20102;-62
2023/05/29 05:02:32;;;;;;;8.00;4.22;;;;;;;17.45;46.84;100738.09;4095643;29;20191;-62
2023/05/29 05:04:55;;;;;;;8.85;3.70;;;;;;;17.45;47.36;100738.09;4096700;28;20111;-62
2023/05/29 05:07:17;;;;;;;6.72;4.18;;;;;;;17.54;46.58;100746.78;4084999;29;20047;-63
2023/05/29 05:09:38;;;;;;;9.00;4.22;;;;;;;17.68;45.90;100752.72;4098565;29;20098;-62
2023/05/29 05:12:02;;;;;;;6.35;4.05;;;;;;;17.58;46.28;100753.72;4096608;28;20054;-62
2023/05/29 05:14:23;;;;;;;8.73;4.18;;;;;;;17.62;46.56;100755.44;4093400;29;20639;-62
2023/05/29 05:16:45;;;;;;;10.05;4.25;;;;;;;17.67;46.81;100758.00;4081686;29;20111;-62
2023/05/29 05:19:07;;;;;;;10.00;4.22;;;;;;;17.70;46.76;100756.25;4095279;29;20051;-62
2023/05/29 05:21:32;;;;;;;8.88;4.40;;;;;;;17.74;46.85;100757.06;4084675;29;20050;-62
2023/05/29 05:23:55;;;;;;;7.78;4.05;;;;;;;17.70;47.00;100756.25;4096561;29;20539;-62
2023/05/29 05:26:21;;;;;;;8.70;4.60;;;;;;;17.73;46.74;100752.72;4093718;29;20427;-63
2023/05/29 05:28:43;;;;;;;8.85;4.40;;;;;;;17.79;46.44;100768.41;4095705;29;20078;-63
2023/05/29 05:31:06;;;;;;;9.10;4.40;;;;;;;17.82;46.61;100762.25;4094044;29;20050;-62
2023/05/29 05:33:27;;;;;;;8.27;3.85;;;;;;;17.82;46.49;100764.88;4095260;29;20098;-62
2023/05/29 05:35:49;;;;;;;8.20;4.32;;;;;;;17.83;46.92;100761.34;4097410;28;20625;-62
2023/05/29 05:38:12;;;;;;;5.93;3.42;;;;;;;17.90;46.77;100768.31;4093126;29;20090;-62
2023/05/29 05:40:34;;;;;;;12.05;4.00;;;;;;;18.14;46.06;100762.78;4095979;29;20120;-62
2023/05/29 05:43:06;;;;;;;9.38;4.47;;;;;;;18.18;45.77;100768.00;4092411;29;20126;-62
2023/05/29 05:45:47;;;;;;;8.30;3.72;;;;;;;18.06;46.14;100762.00;4098321;28;20086;-62
2023/05/29 05:48:10;;;;;;;8.20;4.22;;;;;;;18.11;45.94;100762.81;4084623;29;20150;-62
2023/05/29 05:50:31;;;;;;;9.98;3.70;;;;;;;18.19;45.62;100765.34;4096987;29;20054;-62
2023/05/29 05:52:52;;;;;;;8.07;3.70;;;;;;;18.28;45.15;100770.50;4095524;28;20094;-62
2023/05/29 05:55:16;;;;;;;8.55;3.92;;;;;;;18.32;45.02;100771.31;4095228;29;20081;-62
2023/05/29 05:57:37;;;;;;;7.22;3.45;;;;;;;18.47;44.71;100768.50;4096538;29;20094;-62
2023/05/29 05:59:59;;;;;;;7.90;4.30;;;;;;;18.40;44.83;100774.75;4080569;29;20100;-62
2023/05/29 06:02:21;;;;;;;6.65;3.80;;;;;;;18.46;44.52;100774.66;4094053;29;20126;-62
2023/05/29 06:04:43;;;;;;;8.48;3.58;;;;;;;18.51;44.75;100777.22;4095857;28;20608;-62
2023/05/29 06:07:06;;;;;;;8.07;3.60;;;;;;;18.74;44.47;100776.03;4096393;29;20057;-62
2023/05/29 06:09:29;;;;;;;8.63;4.05;;;;;;;18.78;44.67;100775.97;4094466;29;20066;-62
2023/05/29 06:11:52;;;;;;;9.00;3.13;;;;;;;18.80;44.31;100776.81;4095720;29;20150;-62
2023/05/29 06:14:13;;;;;;;7.55;3.67;;;;;;;18.97;44.47;100775.75;4096770;29;20057;-62
2023/05/29 06:16:36;;;;;;;10.68;4.28;;;;;;;19.00;44.06;100787.09;4082896;29;20050;-62
2023/05/29 06:18:58;;;;;;;11.50;3.97;;;;;;;19.06;44.20;100790.53;4080626;29;20102;-63
2023/05/29 06:21:21;;;;;;;7.13;3.30;;;;;;;19.04;45.12;100790.56;4095049;29;20055;-62
2023/05/29 06:23:47;;;;;;;10.48;3.97;;;;;;;19.16;43.87;100792.13;4080540;29;20548;-62
2023/05/29 06:26:09;;;;;;;9.48;4.32;;;;;;;19.20;43.86;100799.06;4094505;28;20067;-63
2023/05/29 06:28:31;;;;;;;11.63;3.55;;;;;;;19.18;43.80;100791.19;4083063;29;20053;-62
2023/05/29 06:30:53;;;;;;;5.97;3.47;;;;;;;19.23;44.02;100793.78;4094549;29;20547;-62
2023/05/29 06:33:15;;;;;;;7.63;4.10;;;;;;;19.27;44.28;100794.56;4095491;29;20054;-63
2023/05/29 06:35:38;;;;;;;11.07;4.53;;;;;;;19.30;44.06;100798.06;4095510;29;20123;-62
2023/05/29 06:38:00;;;;;;;9.32;4.63;;;;;;;19.46;44.51;100796.00;4094360;29;20046;-63
2023/05/29 06:40:22;;;;;;;8.65;4.50;;;;;;;19.51;44.07;100794.16;4083367;29;20050;-62
2023/05/29 06:42:45;;;;;;;8.60;4.28;;;;;;;19.58;43.91;100794.94;4079896;29;20054;-63
2023/05/29 06:45:13;;;;;;;10.38;4.95;;;;;;;19.67;44.04;100792.13;4095972;29;20146;-62
2023/05/29 06:47:35;;;;;;;10.05;4.78;;;;;;;19.65;43.71;100793.03;4095729;29;20058;-62
2023/05/29 06:49:56;;;;;;;7.78;4.20;;;;;;;19.67;43.48;100788.63;4081599;29;20074;-62
2023/05/29 06:52:19;;;;;;;10.30;4.53;;;;;;;19.76;44.04;100792.88;4094347;29;20058;-62
2023/05/29 06:55:27;;;;;;;10.43;4.50;;;;;;;19.78;43.11;100794.59;4097262;28;20110;-62
2023/05/29 06:57:51;;;;;;;10.07;4.32;;;;;;;19.82;43.89;100795.41;4093538;29;20058;-62
2023/05/29 07:01:09;;;;;;;10.68;4.15;;;;;;;19.92;43.72;100796.09;4093879;29;20530;-62
2023/05/29 07:03:40;;;;;;;10.75;5.13;;;;;;;20.12;43.35;100796.59;4094471;29;20437;-62
2023/05/29 07:06:01;;;;;;;8.18;5.05;;;;;;;20.17;43.10;100804.41;4089717;29;20498;-62
2023/05/29 07:08:32;;;;;;;12.48;4.50;;;;;;;20.18;43.39;100806.13;4081282;29;20087;-62
2023/05/29 07:10:54;;;;;;;10.02;4.93;;;;;;;20.37;43.20;100806.63;4093074;29;20488;-62
2023/05/29 07:13:45;;;;;;;10.27;4.75;;;;;;;20.46;42.52;100808.19;4092004;29;20054;-62
2023/05/29 07:16:08;;;;;;;9.77;5.30;;;;;;;20.62;42.72;100817.56;4095746;29;20070;-62
2023/05/29 07:18:48;;;;;;;9.10;4.53;;;;;;;20.58;42.01;100816.75;4082101;29;20091;-62
2023/05/29 07:21:10;;;;;;;9.85;4.60;;;;;;;20.54;42.55;100808.91;4079602;29;20058;-62
2023/05/29 07:23:32;;;;;;;9.50;4.30;;;;;;;20.77;41.19;100811.09;4094313;29;20054;-62
2023/05/29 07:25:55;;;;;;;13.32;4.60;;;;;;;20.63;41.94;100814.00;4093002;28;20099;-62
2023/05/29 07:28:18;;;;;;;10.18;5.40;;;;;;;20.55;42.23;100814.16;4093450;29;20588;-62
2023/05/29 07:31:08;;;;;;;8.27;4.82;;;;;;;20.56;42.08;100810.63;4094199;29;20059;-62
2023/05/29 07:33:30;;;;;;;15.23;4.88;;;;;;;20.67;41.83;100814.84;4092668;29;20106;-62
2023/05/29 07:35:53;;;;;;;8.38;5.07;;;;;;;20.62;42.13;100812.28;4119449;23;20554;-63
2023/05/29 07:38:15;;;;;;;9.63;4.22;;;;;;;20.68;41.68;100817.44;4111966;28;20447;-63
2023/05/29 07:40:36;;;;;;;11.15;5.07;;;;;;;20.78;41.51;100811.94;4125753;28;20559;-62
2023/05/29 07:43:10;;;;;;;10.30;4.22;;;;;;;20.83;41.00;100816.22;4112725;28;20112;-63
2023/05/29 07:45:42;;;;;;;11.07;4.10;;;;;;;20.87;42.05;100817.91;4123510;28;20078;-63
2023/05/29 07:48:04;;;;;;;6.72;4.10;;;;;;;20.99;40.94;100822.03;4126070;28;20120;-63
2023/05/29 07:50:26;;;;;;;7.25;4.15;;;;;;;21.08;40.61;100820.94;4113135;23;20050;-68
2023/05/29 07:52:49;;;;;;;9.23;4.18;;;;;;;21.27;40.19;100816.97;4094079;29;20433;-65
2023/05/29 07:55:11;;;;;;;8.02;4.03;;;;;;;21.33;40.33;100820.38;4090076;29;20087;-67
2023/05/29 07:57:33;;;;;;;9.77;4.05;;;;;;;21.34;40.51;100827.41;4093043;29;20476;-66
2023/05/29 07:59:55;;;;;;;9.75;3.95;;;;;;;21.43;40.36;100827.16;4093247;28;20116;-68
2023/05/29 08:02:17;;;;;;;8.48;3.78;;;;;;;21.49;40.61;100832.28;4096492;28;20155;-65
2023/05/29 08:05:02;;;;;;;7.30;3.45;;;;;;;21.62;40.78;100822.31;4095190;29;20061;-67
2023/05/29 08:07:23;;;;;;;7.18;4.30;;;;;;;21.87;39.67;100827.81;4095220;29;20161;-67
2023/05/29 08:09:47;;;;;;;7.00;3.40;;;;;;;21.78;40.08;100828.06;4094607;28;20109;-68
2023/05/29 08:12:09;;;;;;;7.10;3.72;;;;;;;21.99;40.15;100823.97;4092493;29;20054;-66
2023/05/29 08:14:31;;;;;;;7.07;3.42;;;;;;;22.17;39.25;100825.25;4095736;29;20534;-68
2023/05/29 08:16:54;;;;;;;8.65;3.85;;;;;;;22.20;38.96;100825.16;4093263;28;20062;-68
2023/05/29 08:19:16;;;;;;;11.57;3.88;;;;;;;22.13;39.81;100827.09;4099671;28;20058;-58
2023/05/29 08:21:38;;;;;;;17.27;3.72;;;;;;;22.22;39.40;100823.31;4098855;29;20531;-63
2023/05/29 08:24:00;;;;;;;8.40;3.90;;;;;;;22.41;38.88;100822.81;4096189;28;20133;-63
2023/05/29 08:26:22;;;;;;;7.53;3.58;;;;;;;22.49;39.08;100821.69;4095590;29;20477;-63
2023/05/29 08:28:44;;;;;;;8.60;3.78;;;;;;;22.78;37.67;100819.06;4099161;28;20122;-62
2023/05/29 08:31:42;;;;;;;11.40;3.92;;;;;;;22.51;39.12;100810.19;4097211;28;20050;-62
2023/05/29 08:34:03;;;;;;;8.48;3.90;;;;;;;22.65;38.53;100815.94;4099165;29;20090;-62
2023/05/29 08:36:26;;;;;;;8.82;4.00;;;;;;;22.86;38.14;100819.69;4097234;28;20046;-63
2023/05/29 08:38:47;;;;;;;7.70;3.53;;;;;;;22.85;37.75;100817.97;4098010;28;20050;-63
2023/05/29 08:41:08;;;;;;;7.85;3.97;;;;;;;22.95;36.99;100814.09;4095896;29;20110;-62
2023/05/29 08:43:33;;;;;;;8.80;4.03;;;;;;;23.11;36.21;100811.00;4096775;29;20118;-63
2023/05/29 08:45:57;;;;;;;4.60;2.88;;;;;;;23.05;37.62;100811.16;4098851;29;20090;-63
2023/05/29 08:48:20;;;;;;;6.65;3.42;;;;;;;23.24;36.95;100809.69;4099230;29;20422;-61
2023/05/29 08:50:45;;;;;;;6.35;3.13;;;;;;;23.43;36.39;100806.41;4099433;28;20110;-63
2023/05/29 08:53:06;;;;;;;6.85;3.40;;;;;;;23.44;36.13;100800.19;4097164;29;20119;-63
2023/05/29 08:55:28;;;;;;;8.45;4.07;;;;;;;23.46;35.79;100799.22;4099261;29;20090;-62
2023/05/29 08:57:51;;;;;;;6.40;3.22;;;;;;;23.55;35.69;100797.16;4098953;28;20087;-63
2023/05/29 09:00:18;;;;;;;4.68;3.00;;;;;;;23.61;36.60;100797.84;4098762;28;20114;-63
2023/05/29 09:02:40;;;;;;;7.75;4.10;;;;;;;23.82;36.31;100800.66;4098362;29;20130;-61
2023/05/29 09:05:01;;;;;;;6.20;3.25;;;;;;;23.96;35.80;100798.41;4098496;29;20050;-63
2023/05/29 09:07:25;;;;;;;7.85;3.78;;;;;;;24.04;36.08;100798.13;4097635;29;20581;-63
2023/05/29 09:09:47;;;;;;;5.75;2.75;;;;;;;24.09;35.62;100803.25;4094413;29;20050;-63
2023/05/29 09:12:09;;;;;;;7.07;3.28;;;;;;;24.19;35.10;100799.34;4097517;29;20054;-62
2023/05/29 09:14:39;;;;;;;11.50;3.85;;;;;;;24.32;34.82;100800.59;4098492;29;20058;-62
2023/05/29 09:17:02;;;;;;;7.10;3.38;;;;;;;24.46;34.24;100799.22;4096227;29;20090;-61
2023/05/29 09:19:23;;;;;;;17.85;11.85;;;;;;;24.49;34.10;100797.31;4097564;28;20074;-60
2023/05/29 09:21:45;;;;;;;6.80;4.60;;;;;;;24.57;33.90;100800.56;4097467;29;20107;-60
2023/05/29 09:24:07;;;;;;;9.20;4.03;;;;;;;24.50;33.94;100795.50;4096525;29;20050;-60
2023/05/29 09:26:29;;;;;;;7.85;4.05;;;;;;;24.67;33.84;100801.06;4094962;29;20094;-61
2023/05/29 09:28:51;;;;;;;9.38;3.83;;;;;;;24.74;33.81;100802.56;4097431;28;20054;-60
2023/05/29 09:31:16;;;;;;;6.50;3.40;;;;;;;24.76;34.09;100794.53;4094550;29;20058;-60
2023/05/29 09:33:49;;;;;;;8.32;3.47;;;;;;;24.88;33.73;100799.38;4097014;29;20413;-60
2023/05/29 09:36:21;;;;;;;7.68;3.75;;;;;;;25.07;33.60;100796.84;4092535;29;20086;-61
2023/05/29 09:38:47;;;;;;;5.50;3.28;;;;;;;25.11;34.15;100802.88;4098012;28;20046;-61
2023/05/29 09:41:13;;;;;;;7.30;3.65;;;;;;;25.18;32.96;100800.84;4095911;29;20102;-59
2023/05/29 09:43:35;;;;;;;6.47;3.08;;;;;;;25.04;33.34;100796.97;4095282;29;20106;-60
2023/05/29 09:45:57;;;;;;;8.73;3.75;;;;;;;25.16;33.23;100794.69;4098284;29;20062;-60
2023/05/29 09:48:23;;;;;;;5.72;3.22;;;;;;;25.20;33.62;100793.66;4095683;29;20046;-59
2023/05/29 09:50:47;;;;;;;7.18;3.15;;;;;;;25.28;33.56;100788.88;4097571;29;20539;-61
2023/05/29 09:53:19;;;;;;;5.72;3.53;;;;;;;25.38;33.02;100787.59;4095030;29;20069;-61
2023/05/29 09:55:40;;;;;;;8.18;3.10;;;;;;;25.48;33.05;100782.75;4097319;29;20126;-60
2023/05/29 09:58:02;;;;;;;7.38;3.38;;;;;;;25.57;33.20;100779.69;4097104;29;20139;-61
2023/05/29 10:00:24;;;;;;;11.55;3.40;;;;;;;25.67;32.36;100782.81;4097983;28;20102;-62
2023/05/29 10:02:46;;;;;;;6.80;3.42;;;;;;;25.69;32.61;100770.28;4092447;29;21485;-61
2023/05/29 10:05:08;;;;;;;6.90;3.53;;;;;;;25.90;32.23;100772.94;4097739;28;20058;-61
2023/05/29 10:07:35;;;;;;;7.22;3.53;;;;;;;25.95;31.44;100771.78;4092777;28;20099;-61
2023/05/29 10:10:01;;;;;;;6.00;3.17;;;;;;;25.86;30.65;100777.53;4096463;28;20054;-61
2023/05/29 10:12:24;;;;;;;6.78;3.22;;;;;;;25.88;31.42;100774.81;4094487;29;20045;-61
2023/05/29 10:14:48;;;;;;;5.68;3.10;;;;;;;25.98;31.03;100768.13;4096042;29;20054;-61
2023/05/29 10:17:12;;;;;;;6.07;3.75;;;;;;;26.06;29.29;100774.00;4097104;29;20551;-61
2023/05/29 10:19:37;;;;;;;7.65;3.95;;;;;;;25.95;30.50;100769.13;4095611;28;20417;-62
2023/05/29 10:22:02;;;;;;;5.70;3.47;;;;;;;25.93;30.31;100764.81;4097088;29;20057;-61
2023/05/29 10:24:26;;;;;;;7.38;3.85;;;;;;;25.98;29.98;100769.91;4094725;29;20053;-61
2023/05/29 10:26:50;;;;;;;6.45;3.80;;;;;;;26.07;29.17;100767.75;4095636;28;20126;-63
2023/05/29 10:29:18;;;;;;;4.97;3.10;;;;;;;25.94;30.23;100763.88;4091769;28;20420;-63
2023/05/29 10:31:49;;;;;;;8.73;3.15;;;;;;;26.19;29.99;100760.13;4094754;28;20127;-63
2023/05/29 10:34:21;;;;;;;7.47;3.28;;;;;;;26.09;30.98;100763.22;4090718;28;20621;-63
2023/05/29 10:36:47;;;;;;;7.32;3.58;;;;;;;26.26;29.56;100770.41;4092446;28;20066;-63
2023/05/29 10:39:09;;;;;;;7.07;4.03;;;;;;;26.25;29.17;100762.50;4087760;28;20069;-63
2023/05/29 10:41:39;;;;;;;5.38;2.80;;;;;;;26.00;29.31;100750.31;4095563;29;20066;-63
2023/05/29 10:44:01;;;;;;;7.72;3.67;;;;;;;26.11;28.97;100748.00;4090603;29;20114;-63
2023/05/29 10:47:02;;;;;;;7.25;3.60;;;;;;;26.23;29.56;100764.38;4094433;28;20077;-63
2023/05/29 10:49:23;;;;;;;7.45;3.45;;;;;;;26.10;29.58;100756.09;4093169;28;20094;-63
2023/05/29 10:51:45;;;;;;;5.90;3.30;;;;;;;26.09;29.16;100751.69;4097017;29;20429;-63
2023/05/29 10:54:07;;;;;;;6.82;3.47;;;;;;;26.19;30.03;100752.13;4086862;29;20053;-63
2023/05/29 10:56:30;;;;;;;6.82;3.53;;;;;;;26.36;28.94;100751.34;4086512;28;20121;-63
2023/05/29 10:58:57;;;;;;;4.90;3.05;;;;;;;26.23;27.58;100749.25;4091687;28;20058;-63
2023/05/29 11:01:22;;;;;;;4.38;3.00;;;;;;;26.18;27.92;100755.72;4089037;28;20051;-63
2023/05/29 11:03:44;;;;;;;5.97;3.05;;;;;;;26.27;27.97;100755.31;4092884;29;20090;-63
2023/05/29 11:06:07;;;;;;;7.20;3.65;;;;;;;26.25;28.72;100755.34;4087921;28;20077;-65
2023/05/29 11:08:36;;;;;;;9.32;4.00;;;;;;;26.29;28.64;100748.09;4079737;29;20065;-66
2023/05/29 11:10:59;;;;;;;7.05;3.13;;;;;;;26.18;28.62;100743.28;4094911;29;20057;-65